sensor_id;sensor_type;location;lat;lon;timestamp;pressure;altitude;pressure_sealevel;temperature;humidity
11268;BME280;49397;47.474;9.416;2023-09-07T00:00:19;95794.91;;;16.99;97.05
11268;BME280;49397;47.474;9.416;2023-09-07T00:02:45;95786.94;;;16.90;98.22
11268;BME280;49397;47.474;9.416;2023-09-07T00:05:10;95786.94;;;16.90;97.94
11268;BME280;49397;47.474;9.416;2023-09-07T00:07:36;95784.56;;;16.88;97.92
11268;BME280;49397;47.474;9.416;2023-09-07T00:10:02;95791.44;;;16.86;98.34
11268;BME280;49397;47.474;9.416;2023-09-07T00:12:28;95783.78;;;16.88;98.38
11268;BME280;49397;47.474;9.416;2023-09-07T00:14:54;95796.72;;;16.94;96.48
11268;BME280;49397;47.474;9.416;2023-09-07T00:17:20;95789.84;;;16.85;98.41
11268;BME280;49397;47.474;9.416;2023-09-07T00:19:45;95789.41;;;16.83;98.36
11268;BME280;49397;47.474;9.416;2023-09-07T00:22:14;95786.38;;;16.97;96.15
11268;BME280;49397;47.474;9.416;2023-09-07T00:24:39;95785.91;;;16.94;96.44
11268;BME280;49397;47.474;9.416;2023-09-07T00:27:05;95789.53;;;16.86;97.32
11268;BME280;49397;47.474;9.416;2023-09-07T00:29:31;95792.34;;;16.78;98.14
11268;BME280;49397;47.474;9.416;2023-09-07T00:31:57;95788.19;;;16.68;98.43
11268;BME280;49397;47.474;9.416;2023-09-07T00:34:22;95794.69;;;16.67;98.59
11268;BME280;49397;47.474;9.416;2023-09-07T00:36:47;95791.19;;;16.67;98.54
11268;BME280;49397;47.474;9.416;2023-09-07T00:39:13;95776.47;;;16.76;96.54
11268;BME280;49397;47.474;9.416;2023-09-07T00:41:38;95784.38;;;16.81;96.01
11268;BME280;49397;47.474;9.416;2023-09-07T00:44:04;95789.97;;;16.76;97.08
11268;BME280;49397;47.474;9.416;2023-09-07T00:46:29;95793.22;;;16.70;97.34
11268;BME280;49397;47.474;9.416;2023-09-07T00:48:55;95793.88;;;16.67;97.23
11268;BME280;49397;47.474;9.416;2023-09-07T00:51:21;95792.22;;;16.62;97.98
11268;BME280;49397;47.474;9.416;2023-09-07T00:53:47;95787.59;;;16.63;97.73
11268;BME280;49397;47.474;9.416;2023-09-07T00:56:12;95787.59;;;16.63;97.67
11268;BME280;49397;47.474;9.416;2023-09-07T00:58:38;95789.41;;;16.59;97.82
11268;BME280;49397;47.474;9.416;2023-09-07T01:01:04;95794.31;;;16.57;98.11
11268;BME280;49397;47.474;9.416;2023-09-07T01:03:29;95787.47;;;16.59;97.63
11268;BME280;49397;47.474;9.416;2023-09-07T01:08:43;95787.81;;;16.58;97.52
11268;BME280;49397;47.474;9.416;2023-09-07T01:11:16;95786.31;;;16.48;98.41
11268;BME280;49397;47.474;9.416;2023-09-07T01:13:42;95785.50;;;16.48;97.81
11268;BME280;49397;47.474;9.416;2023-09-07T01:16:12;95780.34;;;16.42;97.68
11268;BME280;49397;47.474;9.416;2023-09-07T01:18:38;95784.06;;;16.50;97.00
11268;BME280;49397;47.474;9.416;2023-09-07T01:21:08;95778.44;;;16.43;97.70
11268;BME280;49397;47.474;9.416;2023-09-07T01:23:38;95781.78;;;16.40;97.70
11268;BME280;49397;47.474;9.416;2023-09-07T01:26:07;95782.34;;;16.33;98.28
11268;BME280;49397;47.474;9.416;2023-09-07T01:28:34;95778.63;;;16.38;97.45
11268;BME280;49397;47.474;9.416;2023-09-07T01:31:00;95778.63;;;16.38;97.00
11268;BME280;49397;47.474;9.416;2023-09-07T01:33:26;95783.25;;;16.37;96.35
11268;BME280;49397;47.474;9.416;2023-09-07T01:35:52;95777.41;;;16.35;97.09
11268;BME280;49397;47.474;9.416;2023-09-07T01:38:17;95768.63;;;16.26;98.38
11268;BME280;49397;47.474;9.416;2023-09-07T01:40:43;95781.31;;;16.26;98.29
11268;BME280;49397;47.474;9.416;2023-09-07T01:43:08;95773.34;;;16.29;97.56
11268;BME280;49397;47.474;9.416;2023-09-07T01:45:34;95771.56;;;16.33;96.00
11268;BME280;49397;47.474;9.416;2023-09-07T01:47:59;95771.44;;;16.30;96.90
11268;BME280;49397;47.474;9.416;2023-09-07T01:50:25;95774.16;;;16.30;96.67
11268;BME280;49397;47.474;9.416;2023-09-07T01:52:51;95782.31;;;16.21;97.75
11268;BME280;49397;47.474;9.416;2023-09-07T01:55:16;95778.06;;;16.20;97.37
11268;BME280;49397;47.474;9.416;2023-09-07T01:57:42;95773.31;;;16.17;97.49
11268;BME280;49397;47.474;9.416;2023-09-07T02:00:10;95781.72;;;16.16;97.44
11268;BME280;49397;47.474;9.416;2023-09-07T02:02:35;95780.38;;;16.10;97.37
11268;BME280;49397;47.474;9.416;2023-09-07T02:05:01;95784.97;;;16.09;97.56
11268;BME280;49397;47.474;9.416;2023-09-07T02:07:26;95780.38;;;16.10;97.29
11268;BME280;49397;47.474;9.416;2023-09-07T02:09:52;95777.94;;;16.17;96.19
11268;BME280;49397;47.474;9.416;2023-09-07T02:12:17;95778.22;;;16.03;98.15
11268;BME280;49397;47.474;9.416;2023-09-07T02:14:42;95783.47;;;16.00;98.45
11268;BME280;49397;47.474;9.416;2023-09-07T02:17:08;95772.03;;;16.03;97.20
11268;BME280;49397;47.474;9.416;2023-09-07T02:19:33;95780.78;;;16.00;97.83
11268;BME280;49397;47.474;9.416;2023-09-07T02:21:59;95778.97;;;15.92;98.33
11268;BME280;49397;47.474;9.416;2023-09-07T02:24:24;95779.84;;;15.96;96.69
11268;BME280;49397;47.474;9.416;2023-09-07T02:26:49;95780.91;;;16.03;96.13
11268;BME280;49397;47.474;9.416;2023-09-07T02:29:15;95778.97;;;15.92;97.90
11268;BME280;49397;47.474;9.416;2023-09-07T02:31:41;95784.56;;;15.86;98.84
11268;BME280;49397;47.474;9.416;2023-09-07T02:34:06;95784.38;;;15.92;97.91
11268;BME280;49397;47.474;9.416;2023-09-07T02:36:33;95783.88;;;15.89;97.63
11268;BME280;49397;47.474;9.416;2023-09-07T02:38:59;95777.84;;;15.93;96.72
11268;BME280;49397;47.474;9.416;2023-09-07T02:41:25;95785.91;;;15.93;96.39
11268;BME280;49397;47.474;9.416;2023-09-07T02:43:50;95776.72;;;15.94;96.16
11268;BME280;49397;47.474;9.416;2023-09-07T02:46:16;95778.75;;;15.97;96.43
11268;BME280;49397;47.474;9.416;2023-09-07T02:48:42;95773.44;;;15.88;97.61
11268;BME280;49397;47.474;9.416;2023-09-07T02:51:07;95777.13;;;15.83;98.44
11268;BME280;49397;47.474;9.416;2023-09-07T02:53:32;95772.63;;;15.75;99.41
11268;BME280;49397;47.474;9.416;2023-09-07T02:55:58;95786.28;;;15.70;100.00
11268;BME280;49397;47.474;9.416;2023-09-07T02:58:25;95782.78;;;15.70;100.00
11268;BME280;49397;47.474;9.416;2023-09-07T03:00:50;95784.84;;;15.73;99.66
11268;BME280;49397;47.474;9.416;2023-09-07T03:03:15;95775.97;;;15.72;99.83
11268;BME280;49397;47.474;9.416;2023-09-07T03:05:42;95776.09;;;15.76;98.29
11268;BME280;49397;47.474;9.416;2023-09-07T03:08:08;95772.13;;;15.73;98.23
11268;BME280;49397;47.474;9.416;2023-09-07T03:10:35;95780.22;;;15.73;98.31
11268;BME280;49397;47.474;9.416;2023-09-07T03:13:01;95777.22;;;15.75;97.81
11268;BME280;49397;47.474;9.416;2023-09-07T03:15:26;95785.97;;;15.72;98.85
11268;BME280;49397;47.474;9.416;2023-09-07T03:17:52;95783.94;;;15.69;97.84
11268;BME280;49397;47.474;9.416;2023-09-07T03:20:18;95787.41;;;15.69;98.46
11268;BME280;49397;47.474;9.416;2023-09-07T03:22:44;95777.75;;;15.68;97.61
11268;BME280;49397;47.474;9.416;2023-09-07T03:25:10;95780.44;;;15.68;98.13
11268;BME280;49397;47.474;9.416;2023-09-07T03:27:37;95784.44;;;15.62;98.80
11268;BME280;49397;47.474;9.416;2023-09-07T03:30:03;95789.25;;;15.57;99.25
11268;BME280;49397;47.474;9.416;2023-09-07T03:32:29;95783.22;;;15.60;98.96
11268;BME280;49397;47.474;9.416;2023-09-07T03:34:58;95788.47;;;15.56;98.14
11268;BME280;49397;47.474;9.416;2023-09-07T03:37:24;95789.91;;;15.54;97.82
11268;BME280;49397;47.474;9.416;2023-09-07T03:39:50;95787.41;;;15.49;97.66
11268;BME280;49397;47.474;9.416;2023-09-07T03:42:15;95789.78;;;15.50;97.47
11268;BME280;49397;47.474;9.416;2023-09-07T03:44:41;95791.19;;;15.48;97.61
11268;BME280;49397;47.474;9.416;2023-09-07T03:47:06;95787.22;;;15.45;97.65
11268;BME280;49397;47.474;9.416;2023-09-07T03:49:32;95787.66;;;15.56;96.21
11268;BME280;49397;47.474;9.416;2023-09-07T03:51:57;95795.63;;;15.52;96.49
11268;BME280;49397;47.474;9.416;2023-09-07T03:54:22;95786.13;;;15.46;97.12
11268;BME280;49397;47.474;9.416;2023-09-07T03:56:48;95789.47;;;15.43;97.31
11268;BME280;49397;47.474;9.416;2023-09-07T03:59:13;95781.56;;;15.38;97.52
11268;BME280;49397;47.474;9.416;2023-09-07T04:01:38;95783.16;;;15.39;97.01
11268;BME280;49397;47.474;9.416;2023-09-07T04:04:04;95794.59;;;15.36;98.35
11268;BME280;49397;47.474;9.416;2023-09-07T04:06:30;95791.31;;;15.30;98.36
11268;BME280;49397;47.474;9.416;2023-09-07T04:08:55;95792.25;;;15.34;97.69
11268;BME280;49397;47.474;9.416;2023-09-07T04:11:21;95796.09;;;15.25;97.85
11268;BME280;49397;47.474;9.416;2023-09-07T04:13:46;95797.81;;;15.29;97.10
11268;BME280;49397;47.474;9.416;2023-09-07T04:16:12;95796.50;;;15.35;96.52
11268;BME280;49397;47.474;9.416;2023-09-07T04:18:37;95805.09;;;15.29;96.61
11268;BME280;49397;47.474;9.416;2023-09-07T04:21:07;95799.31;;;15.18;97.38
11268;BME280;49397;47.474;9.416;2023-09-07T04:23:33;95798.53;;;15.18;98.24
11268;BME280;49397;47.474;9.416;2023-09-07T04:26:05;95794.09;;;15.13;98.43
11268;BME280;49397;47.474;9.416;2023-09-07T04:28:31;95791.75;;;15.12;97.92
11268;BME280;49397;47.474;9.416;2023-09-07T04:30:56;95792.53;;;15.12;97.66
11268;BME280;49397;47.474;9.416;2023-09-07T04:33:21;95792.34;;;15.17;96.66
11268;BME280;49397;47.474;9.416;2023-09-07T04:35:47;95793.16;;;15.09;97.26
11268;BME280;49397;47.474;9.416;2023-09-07T04:38:12;95789.09;;;15.03;97.86
11268;BME280;49397;47.474;9.416;2023-09-07T04:40:37;95798.91;;;15.08;97.26
11268;BME280;49397;47.474;9.416;2023-09-07T04:43:03;95803.63;;;15.11;97.28
11268;BME280;49397;47.474;9.416;2023-09-07T04:45:28;95801.81;;;15.23;95.58
11268;BME280;49397;47.474;9.416;2023-09-07T04:47:53;95797.66;;;15.26;95.35
11268;BME280;49397;47.474;9.416;2023-09-07T04:50:19;95802.75;;;15.27;95.50
11268;BME280;49397;47.474;9.416;2023-09-07T04:52:44;95810.09;;;15.18;95.97
11268;BME280;49397;47.474;9.416;2023-09-07T04:55:10;95808.56;;;15.09;97.15
11268;BME280;49397;47.474;9.416;2023-09-07T04:57:36;95807.28;;;15.06;97.65
11268;BME280;49397;47.474;9.416;2023-09-07T05:00:01;95809.06;;;15.02;98.13
11268;BME280;49397;47.474;9.416;2023-09-07T05:02:28;95815.09;;;14.99;98.22
11268;BME280;49397;47.474;9.416;2023-09-07T05:04:54;95809.06;;;15.02;98.05
11268;BME280;49397;47.474;9.416;2023-09-07T05:07:19;95805.38;;;15.07;96.98
11268;BME280;49397;47.474;9.416;2023-09-07T05:09:44;95804.41;;;15.11;97.05
11268;BME280;49397;47.474;9.416;2023-09-07T05:12:10;95809.28;;;15.18;96.43
11268;BME280;49397;47.474;9.416;2023-09-07T05:14:36;95805.34;;;15.15;96.97
11268;BME280;49397;47.474;9.416;2023-09-07T05:17:01;95813.75;;;15.14;96.70
11268;BME280;49397;47.474;9.416;2023-09-07T05:19:27;95811.06;;;15.14;97.62
11268;BME280;49397;47.474;9.416;2023-09-07T05:21:52;95807.06;;;15.20;97.16
11268;BME280;49397;47.474;9.416;2023-09-07T05:24:18;95824.13;;;15.24;97.45
11268;BME280;49397;47.474;9.416;2023-09-07T05:26:43;95819.94;;;15.35;96.15
11268;BME280;49397;47.474;9.416;2023-09-07T05:29:10;95821.88;;;15.34;96.20
11268;BME280;49397;47.474;9.416;2023-09-07T05:31:36;95832.00;;;15.29;97.42
11268;BME280;49397;47.474;9.416;2023-09-07T05:34:01;95826.38;;;15.22;97.32
11268;BME280;49397;47.474;9.416;2023-09-07T05:36:27;95822.84;;;15.30;97.48
11268;BME280;49397;47.474;9.416;2023-09-07T05:38:52;95833.28;;;15.31;97.65
11268;BME280;49397;47.474;9.416;2023-09-07T05:41:18;95822.97;;;15.33;97.27
11268;BME280;49397;47.474;9.416;2023-09-07T05:43:43;95828.81;;;15.35;97.96
11268;BME280;49397;47.474;9.416;2023-09-07T05:46:08;95827.31;;;15.47;96.63
11268;BME280;49397;47.474;9.416;2023-09-07T05:48:34;95832.88;;;15.50;97.56
11268;BME280;49397;47.474;9.416;2023-09-07T05:50:59;95830.19;;;15.42;97.31
11268;BME280;49397;47.474;9.416;2023-09-07T05:53:25;95824.50;;;15.43;97.45
11268;BME280;49397;47.474;9.416;2023-09-07T05:55:51;95833.13;;;15.57;97.15
11268;BME280;49397;47.474;9.416;2023-09-07T05:58:17;95831.50;;;15.65;97.29
11268;BME280;49397;47.474;9.416;2023-09-07T06:00:42;95834.13;;;15.73;97.56
11268;BME280;49397;47.474;9.416;2023-09-07T06:03:08;95827.22;;;15.84;96.12
11268;BME280;49397;47.474;9.416;2023-09-07T06:05:35;95827.28;;;15.97;95.05
11268;BME280;49397;47.474;9.416;2023-09-07T06:08:02;95832.41;;;16.10;94.42
11268;BME280;49397;47.474;9.416;2023-09-07T06:10:30;95830.84;;;16.21;93.84
11268;BME280;49397;47.474;9.416;2023-09-07T06:12:56;95814.59;;;16.30;92.73
11268;BME280;49397;47.474;9.416;2023-09-07T06:15:22;95817.41;;;16.33;91.93
11268;BME280;49397;47.474;9.416;2023-09-07T06:17:47;95823.16;;;16.44;91.91
11268;BME280;49397;47.474;9.416;2023-09-07T06:20:13;95825.00;;;16.52;91.65
11268;BME280;49397;47.474;9.416;2023-09-07T06:22:38;95826.28;;;16.67;90.79
11268;BME280;49397;47.474;9.416;2023-09-07T06:25:04;95824.25;;;16.76;90.28
11268;BME280;49397;47.474;9.416;2023-09-07T06:27:29;95826.63;;;16.77;89.54
11268;BME280;49397;47.474;9.416;2023-09-07T06:29:55;95827.44;;;16.90;89.65
11268;BME280;49397;47.474;9.416;2023-09-07T06:32:20;95820.13;;;17.03;88.91
11268;BME280;49397;47.474;9.416;2023-09-07T06:34:45;95822.03;;;17.14;87.69
11268;BME280;49397;47.474;9.416;2023-09-07T06:37:11;95818.66;;;17.17;87.58
11268;BME280;49397;47.474;9.416;2023-09-07T06:39:36;95819.09;;;17.31;87.12
11268;BME280;49397;47.474;9.416;2023-09-07T06:42:02;95822.47;;;17.40;86.99
11268;BME280;49397;47.474;9.416;2023-09-07T06:44:29;95826.50;;;17.46;86.25
11268;BME280;49397;47.474;9.416;2023-09-07T06:46:54;95822.00;;;17.51;84.54
11268;BME280;49397;47.474;9.416;2023-09-07T06:49:19;95831.22;;;17.62;83.76
11268;BME280;49397;47.474;9.416;2023-09-07T06:51:45;95828.97;;;17.76;82.70
11268;BME280;49397;47.474;9.416;2023-09-07T06:54:10;95824.63;;;17.87;82.34
11268;BME280;49397;47.474;9.416;2023-09-07T06:56:36;95829.81;;;17.92;81.06
11268;BME280;49397;47.474;9.416;2023-09-07T06:59:01;95827.91;;;17.92;81.27
11268;BME280;49397;47.474;9.416;2023-09-07T07:01:27;95825.19;;;17.92;81.19
11268;BME280;49397;47.474;9.416;2023-09-07T07:03:52;95829.56;;;17.97;81.71
11268;BME280;49397;47.474;9.416;2023-09-07T07:06:18;95826.84;;;18.09;81.95
11268;BME280;49397;47.474;9.416;2023-09-07T07:08:43;95830.72;;;18.24;81.88
11268;BME280;49397;47.474;9.416;2023-09-07T07:11:09;95830.28;;;18.22;81.00
11268;BME280;49397;47.474;9.416;2023-09-07T07:13:34;95821.00;;;18.23;81.68
11268;BME280;49397;47.474;9.416;2023-09-07T07:16:00;95836.75;;;18.33;81.85
11268;BME280;49397;47.474;9.416;2023-09-07T07:18:25;95838.94;;;18.27;82.25
11268;BME280;49397;47.474;9.416;2023-09-07T07:20:50;95837.03;;;18.43;82.00
11268;BME280;49397;47.474;9.416;2023-09-07T07:23:16;95838.13;;;18.55;80.74
11268;BME280;49397;47.474;9.416;2023-09-07T07:25:41;95835.19;;;18.60;79.92
11268;BME280;49397;47.474;9.416;2023-09-07T07:28:07;95839.31;;;18.69;80.36
11268;BME280;49397;47.474;9.416;2023-09-07T07:30:37;95832.03;;;18.73;80.74
11268;BME280;49397;47.474;9.416;2023-09-07T07:33:03;95840.63;;;18.75;80.15
11268;BME280;49397;47.474;9.416;2023-09-07T07:35:30;95839.63;;;18.68;80.05
11268;BME280;49397;47.474;9.416;2023-09-07T07:37:55;95844.28;;;18.98;80.05
11268;BME280;49397;47.474;9.416;2023-09-07T07:40:20;95839.13;;;18.93;81.29
11268;BME280;49397;47.474;9.416;2023-09-07T07:42:47;95844.22;;;19.11;80.60
11268;BME280;49397;47.474;9.416;2023-09-07T07:45:12;95845.50;;;19.17;80.11
11268;BME280;49397;47.474;9.416;2023-09-07T07:47:39;95853.47;;;19.10;79.72
11268;BME280;49397;47.474;9.416;2023-09-07T07:50:05;95841.56;;;19.30;80.02
11268;BME280;49397;47.474;9.416;2023-09-07T07:52:31;95844.00;;;19.35;79.25
11268;BME280;49397;47.474;9.416;2023-09-07T07:54:56;95847.13;;;19.37;78.08
11268;BME280;49397;47.474;9.416;2023-09-07T07:57:21;95847.94;;;19.22;78.44
11268;BME280;49397;47.474;9.416;2023-09-07T07:59:47;95841.38;;;19.54;77.70
11268;BME280;49397;47.474;9.416;2023-09-07T08:02:12;95846.50;;;19.75;78.19
11268;BME280;49397;47.474;9.416;2023-09-07T08:04:37;95839.09;;;19.91;76.79
11268;BME280;49397;47.474;9.416;2023-09-07T08:07:03;95843.00;;;19.93;76.16
11268;BME280;49397;47.474;9.416;2023-09-07T08:09:33;95845.22;;;20.07;75.67
11268;BME280;49397;47.474;9.416;2023-09-07T08:11:59;95842.53;;;20.26;75.31
11268;BME280;49397;47.474;9.416;2023-09-07T08:14:28;95833.88;;;20.40;74.69
11268;BME280;49397;47.474;9.416;2023-09-07T08:16:53;95831.34;;;20.28;74.85
11268;BME280;49397;47.474;9.416;2023-09-07T08:19:19;95837.44;;;20.25;75.04
11268;BME280;49397;47.474;9.416;2023-09-07T08:21:45;95830.59;;;20.50;74.39
11268;BME280;49397;47.474;9.416;2023-09-07T08:24:11;95833.69;;;20.71;75.12
11268;BME280;49397;47.474;9.416;2023-09-07T08:26:37;95832.63;;;20.76;74.09
11268;BME280;49397;47.474;9.416;2023-09-07T08:29:03;95828.50;;;20.63;74.92
11268;BME280;49397;47.474;9.416;2023-09-07T08:31:34;95827.53;;;20.74;74.18
11268;BME280;49397;47.474;9.416;2023-09-07T08:34:01;95830.63;;;20.73;73.40
11268;BME280;49397;47.474;9.416;2023-09-07T08:36:28;95826.28;;;20.91;74.29
11268;BME280;49397;47.474;9.416;2023-09-07T08:38:54;95832.75;;;21.05;74.06
11268;BME280;49397;47.474;9.416;2023-09-07T08:41:21;95828.03;;;21.02;74.64
11268;BME280;49397;47.474;9.416;2023-09-07T08:43:47;95826.47;;;21.01;72.34
11268;BME280;49397;47.474;9.416;2023-09-07T08:46:17;95828.28;;;21.17;71.41
11268;BME280;49397;47.474;9.416;2023-09-07T08:48:43;95826.88;;;20.81;72.34
11268;BME280;49397;47.474;9.416;2023-09-07T08:51:12;95824.03;;;20.96;73.34
11268;BME280;49397;47.474;9.416;2023-09-07T08:53:40;95826.88;;;21.26;72.78
11268;BME280;49397;47.474;9.416;2023-09-07T08:56:07;95821.81;;;21.51;72.58
11268;BME280;49397;47.474;9.416;2023-09-07T08:58:36;95812.97;;;21.57;70.98
11268;BME280;49397;47.474;9.416;2023-09-07T09:01:01;95827.00;;;21.33;71.78
11268;BME280;49397;47.474;9.416;2023-09-07T09:03:26;95825.94;;;21.68;72.04
11268;BME280;49397;47.474;9.416;2023-09-07T09:05:55;95820.41;;;21.60;70.45
11268;BME280;49397;47.474;9.416;2023-09-07T09:08:21;95818.03;;;21.85;70.35
11268;BME280;49397;47.474;9.416;2023-09-07T09:10:58;95822.84;;;21.95;71.12
11268;BME280;49397;47.474;9.416;2023-09-07T09:13:29;95826.84;;;22.01;70.97
11268;BME280;49397;47.474;9.416;2023-09-07T09:15:54;95827.69;;;21.79;69.00
11268;BME280;49397;47.474;9.416;2023-09-07T09:18:20;95821.41;;;22.05;69.13
11268;BME280;49397;47.474;9.416;2023-09-07T09:20:45;95819.22;;;22.14;69.03
11268;BME280;49397;47.474;9.416;2023-09-07T09:23:10;95819.09;;;21.77;69.11
11268;BME280;49397;47.474;9.416;2023-09-07T09:25:40;95817.94;;;22.04;69.43
11268;BME280;49397;47.474;9.416;2023-09-07T09:28:08;95817.16;;;22.41;69.32
11268;BME280;49397;47.474;9.416;2023-09-07T09:30:34;95816.84;;;22.12;69.22
11268;BME280;49397;47.474;9.416;2023-09-07T09:32:59;95810.88;;;22.33;69.35
11268;BME280;49397;47.474;9.416;2023-09-07T09:35:25;95817.09;;;22.34;68.87
11268;BME280;49397;47.474;9.416;2023-09-07T09:37:51;95813.28;;;22.42;68.28
11268;BME280;49397;47.474;9.416;2023-09-07T09:40:16;95815.50;;;22.29;68.10
11268;BME280;49397;47.474;9.416;2023-09-07T09:42:43;95816.28;;;22.30;69.26
11268;BME280;49397;47.474;9.416;2023-09-07T09:45:10;95814.41;;;22.71;68.52
11268;BME280;49397;47.474;9.416;2023-09-07T09:47:41;95812.47;;;22.71;66.52
11268;BME280;49397;47.474;9.416;2023-09-07T09:50:11;95810.03;;;23.03;67.49
11268;BME280;49397;47.474;9.416;2023-09-07T09:52:37;95811.19;;;23.02;68.33
11268;BME280;49397;47.474;9.416;2023-09-07T09:55:04;95813.00;;;23.35;67.34
11268;BME280;49397;47.474;9.416;2023-09-07T09:57:33;95813.75;;;23.28;65.95
11268;BME280;49397;47.474;9.416;2023-09-07T09:59:59;95810.66;;;23.33;67.08
11268;BME280;49397;47.474;9.416;2023-09-07T10:02:29;95811.59;;;23.07;66.44
11268;BME280;49397;47.474;9.416;2023-09-07T10:04:55;95811.19;;;23.02;67.15
11268;BME280;72685;47.474;9.416;2023-09-07T10:07:29;95805.78;;;23.09;67.23
11268;BME280;72685;47.474;9.416;2023-09-07T10:10:09;95807.34;;;23.57;66.13
11268;BME280;72685;47.474;9.416;2023-09-07T10:12:40;95798.91;;;23.80;66.32
11268;BME280;72685;47.474;9.416;2023-09-07T10:15:05;95802.84;;;23.93;65.86
11268;BME280;72685;47.474;9.416;2023-09-07T10:17:31;95804.06;;;23.99;65.39
11268;BME280;72685;47.474;9.416;2023-09-07T10:20:04;95804.56;;;24.22;64.98
11268;BME280;72685;47.474;9.416;2023-09-07T10:22:32;95802.28;;;24.28;65.30
11268;BME280;72685;47.474;9.416;2023-09-07T10:24:58;95796.47;;;24.47;63.32
11268;BME280;72685;47.474;9.416;2023-09-07T10:27:24;95797.25;;;24.55;63.36
11268;BME280;72685;47.474;9.416;2023-09-07T10:29:50;95793.38;;;24.70;63.64
11268;BME280;72685;47.474;9.416;2023-09-07T10:32:18;95791.78;;;24.51;63.17
11268;BME280;72685;47.474;9.416;2023-09-07T10:34:43;95794.13;;;24.63;62.45
11268;BME280;72685;47.474;9.416;2023-09-07T10:37:15;95788.34;;;24.93;62.93
11268;BME280;72685;47.474;9.416;2023-09-07T10:39:42;95787.97;;;25.05;61.68
11268;BME280;72685;47.474;9.416;2023-09-07T10:42:26;95789.88;;;24.69;63.11
11268;BME280;72685;47.474;9.416;2023-09-07T10:44:52;95789.53;;;25.10;62.19
11268;BME280;72685;47.474;9.416;2023-09-07T10:47:17;95782.50;;;25.19;60.12
11268;BME280;72685;47.474;9.416;2023-09-07T10:49:43;95786.66;;;24.36;61.75
11268;BME280;72685;47.474;9.416;2023-09-07T10:52:08;95789.03;;;24.41;63.05
11268;BME280;72685;47.474;9.416;2023-09-07T10:54:34;95785.19;;;24.77;61.89
11268;BME280;72685;47.474;9.416;2023-09-07T10:57:11;95782.50;;;25.30;61.12
11268;BME280;72685;47.474;9.416;2023-09-07T10:59:36;95780.91;;;25.57;61.07
11268;BME280;72685;47.474;9.416;2023-09-07T11:02:05;95775.03;;;25.62;59.57
11268;BME280;72685;47.474;9.416;2023-09-07T11:04:30;95766.78;;;25.76;59.57
11268;BME280;72685;47.474;9.416;2023-09-07T11:06:56;95770.63;;;26.00;59.01
11268;BME280;72685;47.474;9.416;2023-09-07T11:09:21;95760.81;;;26.06;58.90
11268;BME280;72685;47.474;9.416;2023-09-07T11:11:47;95757.78;;;25.76;58.72
11268;BME280;72685;47.474;9.416;2023-09-07T11:14:12;95759.63;;;26.11;59.78
11268;BME280;72685;47.474;9.416;2023-09-07T11:16:40;95754.41;;;26.41;59.90
11268;BME280;72685;47.474;9.416;2023-09-07T11:19:06;95759.97;;;26.23;59.05
11268;BME280;72685;47.474;9.416;2023-09-07T11:21:33;95756.50;;;26.05;56.93
11268;BME280;72685;47.474;9.416;2023-09-07T11:24:00;95757.22;;;26.23;57.60
11268;BME280;72685;47.474;9.416;2023-09-07T11:26:25;95766.75;;;25.87;59.86
11268;BME280;72685;47.474;9.416;2023-09-07T11:28:51;95765.09;;;26.14;59.36
11268;BME280;72685;47.474;9.416;2023-09-07T11:31:20;95763.97;;;26.01;56.56
11268;BME280;72685;47.474;9.416;2023-09-07T11:33:48;95766.31;;;26.06;56.51
11268;BME280;72685;47.474;9.416;2023-09-07T11:36:14;95751.41;;;26.04;55.46
11268;BME280;72685;47.474;9.416;2023-09-07T11:38:43;95747.00;;;26.38;55.61
11268;BME280;72685;47.474;9.416;2023-09-07T11:41:09;95754.13;;;26.18;56.91
11268;BME280;72685;47.474;9.416;2023-09-07T11:43:34;95747.00;;;26.35;56.26
11268;BME280;72685;47.474;9.416;2023-09-07T11:45:59;95745.78;;;26.43;55.67
11268;BME280;72685;47.474;9.416;2023-09-07T11:48:26;95744.63;;;26.37;54.94
11268;BME280;72685;47.474;9.416;2023-09-07T11:50:53;95743.59;;;26.75;55.38
11268;BME280;72685;47.474;9.416;2023-09-07T11:53:19;95738.03;;;26.93;56.71
11268;BME280;72685;47.474;9.416;2023-09-07T11:55:44;95738.16;;;27.23;56.26
11268;BME280;72685;47.474;9.416;2023-09-07T11:58:10;95739.09;;;26.51;57.76
11268;BME280;72685;47.474;9.416;2023-09-07T12:00:35;95748.63;;;26.14;56.44
11268;BME280;72685;47.474;9.416;2023-09-07T12:03:02;95743.59;;;26.78;53.76
11268;BME280;72685;47.474;9.416;2023-09-07T12:05:27;95739.53;;;26.97;54.78
11268;BME280;72685;47.474;9.416;2023-09-07T12:07:53;95740.34;;;26.94;56.84
11268;BME280;72685;47.474;9.416;2023-09-07T12:10:18;95744.69;;;27.36;53.08
11268;BME280;72685;47.474;9.416;2023-09-07T12:12:44;95740.09;;;27.22;53.85
11268;BME280;72685;47.474;9.416;2023-09-07T12:15:10;95734.13;;;27.34;53.67
11268;BME280;72685;47.474;9.416;2023-09-07T12:17:39;95732.38;;;27.55;52.71
11268;BME280;72685;47.474;9.416;2023-09-07T12:20:05;95727.06;;;26.93;54.20
11268;BME280;72685;47.474;9.416;2023-09-07T12:22:34;95735.38;;;26.75;52.99
11268;BME280;72685;47.474;9.416;2023-09-07T12:25:01;95741.38;;;27.14;54.19
11268;BME280;72685;47.474;9.416;2023-09-07T12:27:26;95737.28;;;27.33;56.79
11268;BME280;72685;47.474;9.416;2023-09-07T12:29:51;95730.91;;;27.02;55.06
11268;BME280;72685;47.474;9.416;2023-09-07T12:32:17;95733.03;;;27.25;53.16
11268;BME280;72685;47.474;9.416;2023-09-07T12:34:42;95727.13;;;26.82;54.84
11268;BME280;72685;47.474;9.416;2023-09-07T12:37:08;95727.09;;;26.86;54.03
11268;BME280;72685;47.474;9.416;2023-09-07T12:39:33;95724.28;;;26.96;54.76
11268;BME280;72685;47.474;9.416;2023-09-07T12:41:58;95730.81;;;26.58;56.99
11268;BME280;72685;47.474;9.416;2023-09-07T12:44:24;95724.88;;;26.63;58.07
11268;BME280;72685;47.474;9.416;2023-09-07T12:46:49;95718.53;;;26.76;57.08
11268;BME280;72685;47.474;9.416;2023-09-07T12:49:15;95723.59;;;26.78;58.10
11268;BME280;72685;47.474;9.416;2023-09-07T12:51:45;95718.59;;;26.66;57.38
11268;BME280;72685;47.474;9.416;2023-09-07T12:54:12;95720.53;;;26.69;57.03
11268;BME280;72685;47.474;9.416;2023-09-07T12:56:37;95721.34;;;26.66;57.39